createdAt,value
2018-09-19T00:00:24.938Z,6.90
2018-09-19T00:01:24.930Z,6.40
2018-09-19T00:02:24.927Z,9.50
2018-09-19T00:03:24.928Z,8.30
2018-09-19T00:04:24.925Z,7.40
2018-09-19T00:05:24.925Z,6.80
2018-09-19T00:06:24.929Z,5.40
2018-09-19T00:07:24.918Z,6.50
2018-09-19T00:08:24.961Z,8.20
2018-09-19T00:09:24.921Z,8.10
2018-09-19T00:10:24.918Z,6.70
2018-09-19T00:11:24.920Z,5.50
2018-09-19T00:12:24.918Z,8.30
2018-09-19T00:13:24.909Z,6.90
2018-09-19T00:14:24.912Z,11.10
2018-09-19T00:15:24.905Z,7.90
2018-09-19T00:16:24.902Z,8.30
2018-09-19T00:17:24.905Z,5.60
2018-09-19T00:18:24.906Z,7.00
2018-09-19T00:19:24.900Z,9.90
2018-09-19T00:20:24.901Z,6.80
2018-09-19T00:21:24.893Z,12.30
2018-09-19T00:22:24.891Z,10.70
2018-09-19T00:23:24.897Z,8.00
2018-09-19T00:24:24.891Z,11.50
2018-09-19T00:25:24.885Z,7.70
2018-09-19T00:26:24.883Z,7.90
2018-09-19T00:27:24.882Z,9.40
2018-09-19T00:28:24.881Z,7.10
2018-09-19T00:29:24.883Z,7.20
2018-09-19T00:30:24.881Z,6.10
2018-09-19T00:31:24.878Z,6.10
2018-09-19T00:32:24.878Z,6.80
2018-09-19T00:33:24.868Z,6.70
2018-09-19T00:34:24.869Z,7.80
2018-09-19T00:35:24.868Z,6.40
2018-09-19T00:36:24.864Z,8.20
2018-09-19T00:37:24.866Z,8.30
2018-09-19T00:38:24.871Z,6.60
2018-09-19T00:39:24.856Z,5.90
2018-09-19T00:40:24.856Z,7.50
2018-09-19T00:41:24.855Z,6.10
2018-09-19T00:42:24.854Z,9.40
2018-09-19T00:43:24.856Z,7.90
2018-09-19T00:44:24.850Z,8.10
2018-09-19T00:45:24.844Z,6.20
2018-09-19T00:46:24.858Z,6.80
2018-09-19T00:47:24.840Z,6.80
2018-09-19T00:48:24.839Z,5.80
2018-09-19T00:49:24.839Z,7.10
2018-09-19T00:50:24.837Z,10.60
2018-09-19T00:51:24.835Z,7.80
2018-09-19T00:52:24.832Z,5.80
2018-09-19T00:53:24.824Z,6.20
2018-09-19T00:54:24.822Z,6.30
2018-09-19T00:55:24.826Z,5.10
2018-09-19T00:56:24.873Z,8.70
2018-09-19T00:57:24.815Z,7.20
2018-09-19T00:58:24.818Z,7.20
2018-09-19T00:59:24.815Z,8.10
2018-09-19T01:00:24.811Z,6.40
2018-09-19T01:01:24.814Z,8.30
2018-09-19T01:02:24.812Z,6.90
2018-09-19T01:03:24.808Z,7.60
2018-09-19T01:04:24.806Z,6.50
2018-09-19T01:05:24.799Z,8.10
2018-09-19T01:06:24.797Z,5.50
2018-09-19T01:07:24.794Z,7.50
2018-09-19T01:08:24.790Z,7.70
2018-09-19T01:09:24.791Z,6.80
2018-09-19T01:10:24.791Z,8.50
2018-09-19T01:11:24.786Z,5.20
2018-09-19T01:12:24.781Z,7.30
2018-09-19T01:13:24.783Z,6.70
2018-09-19T01:14:24.780Z,7.30
2018-09-19T01:15:24.788Z,6.90
2018-09-19T01:16:24.782Z,7.00
2018-09-19T01:17:24.854Z,8.70
2018-09-19T01:18:24.767Z,7.30
2018-09-19T01:19:24.764Z,7.50
2018-09-19T01:20:24.763Z,8.30
2018-09-19T01:21:24.762Z,6.10
2018-09-19T01:22:24.763Z,5.90
2018-09-19T01:23:24.759Z,6.90
2018-09-19T01:24:24.757Z,7.80
2018-09-19T01:25:24.757Z,8.10
2018-09-19T01:26:24.746Z,5.50
2018-09-19T01:27:24.749Z,6.60
2018-09-19T01:28:24.747Z,5.80
2018-09-19T01:29:24.739Z,8.20
2018-09-19T01:30:24.737Z,5.80
2018-09-19T01:31:24.736Z,6.90
2018-09-19T01:32:24.732Z,8.30
2018-09-19T01:33:24.736Z,8.40
2018-09-19T01:34:24.733Z,6.90
2018-09-19T01:35:24.729Z,6.60
2018-09-19T01:36:24.729Z,8.00
2018-09-19T01:37:24.719Z,8.50
2018-09-19T01:38:24.718Z,8.30
2018-09-19T01:39:24.715Z,8.30
2018-09-19T01:40:24.711Z,8.80
2018-09-19T01:41:24.712Z,7.00
2018-09-19T01:42:24.711Z,8.20
2018-09-19T01:43:24.705Z,7.60
2018-09-19T01:44:24.701Z,5.80
2018-09-19T01:45:24.703Z,10.90
2018-09-19T01:46:24.700Z,8.30
2018-09-19T01:47:24.699Z,7.20
2018-09-19T01:48:24.698Z,5.80
2018-09-19T01:49:24.688Z,8.40
2018-09-19T01:50:24.685Z,8.10
2018-09-19T01:51:24.682Z,7.80
2018-09-19T01:52:24.682Z,6.80
2018-09-19T01:53:24.682Z,7.20
2018-09-19T01:54:24.680Z,7.00
2018-09-19T01:55:24.680Z,6.70
2018-09-19T01:56:24.675Z,7.70
2018-09-19T01:57:24.666Z,5.20
2018-09-19T01:58:24.666Z,6.80
2018-09-19T01:59:24.666Z,7.10
2018-09-19T02:00:24.666Z,7.30
2018-09-19T02:01:24.655Z,7.30
2018-09-19T02:02:24.653Z,6.20
2018-09-19T02:03:24.650Z,8.60
2018-09-19T02:04:24.652Z,7.70
2018-09-19T02:05:24.649Z,10.00
2018-09-19T02:06:24.647Z,6.00
2018-09-19T02:07:24.646Z,6.90
2018-09-19T02:08:24.642Z,7.60
2018-09-19T02:09:24.635Z,8.00
2018-09-19T02:10:24.632Z,8.20
2018-09-19T02:11:24.628Z,5.70
2018-09-19T02:12:24.627Z,8.20
2018-09-19T02:13:24.631Z,6.70
2018-09-19T02:14:24.626Z,6.00
2018-09-19T02:15:24.637Z,8.50
2018-09-19T02:16:24.619Z,7.30
2018-09-19T02:17:24.616Z,6.20
2018-09-19T02:18:24.613Z,5.80
2018-09-19T02:19:24.614Z,7.80
2018-09-19T02:20:24.616Z,7.60
2018-09-19T02:21:24.604Z,8.40
2018-09-19T02:22:24.597Z,8.80
2018-09-19T02:23:24.594Z,7.20
2018-09-19T02:24:24.593Z,7.00
2018-09-19T02:25:24.601Z,8.60
2018-09-19T02:26:24.590Z,6.40
2018-09-19T02:27:24.589Z,7.50
2018-09-19T02:28:24.596Z,7.70
2018-09-19T02:29:24.578Z,6.80
2018-09-19T02:30:24.579Z,8.70
2018-09-19T02:31:24.581Z,8.10
2018-09-19T02:32:24.575Z,10.10
2018-09-19T02:33:24.580Z,8.50
2018-09-19T02:34:24.569Z,10.80
2018-09-19T02:35:24.567Z,8.50
2018-09-19T02:36:24.564Z,9.00
2018-09-19T02:37:24.559Z,8.10
2018-09-19T02:38:24.555Z,8.00
2018-09-19T02:39:24.551Z,9.30
2018-09-19T02:40:24.552Z,8.40
2018-09-19T02:41:24.541Z,8.70
2018-09-19T02:42:24.538Z,6.50
2018-09-19T02:43:24.543Z,10.20
2018-09-19T02:44:24.534Z,8.90
2018-09-19T02:45:24.544Z,10.00
2018-09-19T02:46:24.532Z,7.10
2018-09-19T02:47:24.524Z,10.30
2018-09-19T02:48:24.526Z,10.80
2018-09-19T02:49:24.531Z,10.50
2018-09-19T02:50:24.571Z,11.10
2018-09-19T02:51:24.515Z,11.90
2018-09-19T02:52:24.513Z,10.70
2018-09-19T02:53:24.508Z,9.20
2018-09-19T02:54:24.501Z,8.00
2018-09-19T02:55:24.500Z,5.90
2018-09-19T02:56:24.497Z,7.00
2018-09-19T02:57:24.497Z,8.90
2018-09-19T02:58:24.496Z,6.90
2018-09-19T02:59:24.494Z,6.00
2018-09-19T03:00:24.489Z,7.00
2018-09-19T03:01:24.481Z,5.40
2018-09-19T03:02:24.477Z,6.90
2018-09-19T03:03:24.480Z,9.80
2018-09-19T03:04:24.491Z,7.80
2018-09-19T03:05:24.476Z,6.40
2018-09-19T03:06:24.468Z,7.50
2018-09-19T03:07:24.463Z,8.10
2018-09-19T03:08:24.462Z,8.70
2018-09-19T03:09:24.460Z,7.20
2018-09-19T03:10:24.463Z,7.50
2018-09-19T03:11:24.460Z,10.60
2018-09-19T03:12:24.461Z,9.90
2018-09-19T03:13:24.442Z,10.60
2018-09-19T03:14:24.456Z,11.50
2018-09-19T03:15:24.444Z,8.40
2018-09-19T03:16:24.439Z,10.00
2018-09-19T03:17:24.573Z,6.50
2018-09-19T03:18:24.431Z,10.70
2018-09-19T03:19:24.428Z,13.90
2018-09-19T03:20:24.421Z,12.20
2018-09-19T03:21:24.422Z,11.60
2018-09-19T03:22:24.418Z,9.40
2018-09-19T03:23:24.417Z,12.50
2018-09-19T03:24:24.417Z,10.70
2018-09-19T03:25:24.404Z,8.90
2018-09-19T03:26:24.401Z,10.40
2018-09-19T03:27:24.398Z,8.80
2018-09-19T03:28:24.395Z,10.40
2018-09-19T03:29:24.404Z,8.80
2018-09-19T03:30:24.396Z,11.40
2018-09-19T03:31:24.389Z,9.90
2018-09-19T03:32:24.385Z,10.80
2018-09-19T03:33:24.385Z,10.40
2018-09-19T03:34:24.378Z,9.80
2018-09-19T03:35:24.415Z,9.40
2018-09-19T03:36:24.374Z,10.10
2018-09-19T03:37:24.363Z,8.10
2018-09-19T03:38:24.363Z,8.10
2018-09-19T03:39:24.363Z,7.10
2018-09-19T03:40:24.363Z,7.90
2018-09-19T03:41:24.359Z,9.80
2018-09-19T03:42:24.353Z,7.00
2018-09-19T03:43:24.351Z,7.70
2018-09-19T03:44:24.349Z,7.20
2018-09-19T03:45:24.338Z,8.80
2018-09-19T03:46:24.336Z,8.70
2018-09-19T03:47:24.331Z,7.40
2018-09-19T03:48:24.327Z,9.40
2018-09-19T03:49:24.328Z,8.70
2018-09-19T03:50:24.328Z,11.80
2018-09-19T03:51:24.323Z,10.30
2018-09-19T03:52:24.313Z,9.10
2018-09-19T03:53:24.315Z,9.60
2018-09-19T03:54:24.312Z,7.30
2018-09-19T03:55:24.319Z,9.50
2018-09-19T03:56:24.309Z,7.90
2018-09-19T03:57:24.298Z,8.50
2018-09-19T03:58:24.325Z,8.70
2018-09-19T03:59:24.296Z,7.20
2018-09-19T04:00:24.297Z,6.80
2018-09-19T04:01:24.292Z,9.50
2018-09-19T04:02:24.286Z,6.80
2018-09-19T04:03:24.284Z,7.80
2018-09-19T04:04:24.284Z,8.80
2018-09-19T04:05:24.271Z,8.40
2018-09-19T04:06:24.270Z,9.60
2018-09-19T04:07:24.270Z,11.10
2018-09-19T04:08:24.271Z,9.90
2018-09-19T04:09:24.267Z,12.70
2018-09-19T04:10:24.256Z,8.50
2018-09-19T04:11:24.253Z,11.20
2018-09-19T04:12:24.249Z,11.60
2018-09-19T04:13:24.249Z,9.80
2018-09-19T04:14:24.248Z,13.00
2018-09-19T04:15:24.244Z,10.80
2018-09-19T04:16:24.242Z,12.30
2018-09-19T04:17:24.233Z,10.10
2018-09-19T04:18:24.233Z,11.50
2018-09-19T04:19:24.229Z,9.80
2018-09-19T04:20:24.223Z,15.20
2018-09-19T04:21:24.228Z,10.50
2018-09-19T04:22:24.221Z,11.50
2018-09-19T04:23:24.216Z,11.40
2018-09-19T04:24:24.211Z,15.00
2018-09-19T04:25:24.210Z,11.90
2018-09-19T04:26:24.210Z,10.50
2018-09-19T04:27:24.208Z,11.60
2018-09-19T04:28:24.203Z,10.70
2018-09-19T04:29:24.191Z,13.30
2018-09-19T04:30:24.192Z,13.20
2018-09-19T04:31:24.187Z,10.40
2018-09-19T04:32:24.252Z,13.00
2018-09-19T04:33:24.190Z,16.90
2018-09-19T04:34:24.180Z,11.00
2018-09-19T04:35:24.179Z,9.70
2018-09-19T04:36:24.175Z,10.30
2018-09-19T04:37:24.169Z,10.80
2018-09-19T04:38:24.162Z,10.10
2018-09-19T04:39:24.164Z,10.90
2018-09-19T04:40:24.161Z,9.10
2018-09-19T04:41:24.153Z,10.60
2018-09-19T04:42:24.153Z,15.50
2018-09-19T04:43:24.146Z,12.90
2018-09-19T04:44:24.155Z,10.70
2018-09-19T04:45:24.141Z,11.90
2018-09-19T04:46:24.143Z,13.10
2018-09-19T04:47:24.144Z,14.50
2018-09-19T04:48:24.132Z,13.10
2018-09-19T04:49:24.124Z,13.90
2018-09-19T04:50:24.120Z,13.90
2018-09-19T04:51:24.135Z,15.10
2018-09-19T04:52:24.115Z,11.60
2018-09-19T04:53:24.121Z,12.00
2018-09-19T04:54:24.114Z,13.20
2018-09-19T04:55:24.103Z,10.50
2018-09-19T04:56:24.105Z,13.70
2018-09-19T04:57:24.113Z,8.90
2018-09-19T04:58:24.099Z,11.50
2018-09-19T04:59:24.094Z,12.60
2018-09-19T05:00:24.092Z,9.90
2018-09-19T05:01:24.084Z,13.20
2018-09-19T05:02:24.080Z,10.50
2018-09-19T05:03:24.077Z,10.20
2018-09-19T05:04:24.077Z,12.20
2018-09-19T05:05:24.078Z,11.10
2018-09-19T05:06:24.071Z,11.00
2018-09-19T05:07:24.153Z,12.20
2018-09-19T05:08:24.070Z,12.60
2018-09-19T05:09:24.056Z,14.30
2018-09-19T05:10:24.055Z,11.20
2018-09-19T05:11:24.124Z,13.20
2018-09-19T05:12:24.051Z,13.70
2018-09-19T05:13:24.042Z,12.80
2018-09-19T05:14:24.041Z,10.60
2018-09-19T05:15:24.038Z,10.80
2018-09-19T05:16:24.035Z,12.90
2018-09-19T05:17:24.033Z,13.40
2018-09-19T05:18:24.030Z,12.30
2018-09-19T05:19:24.032Z,10.40
2018-09-19T05:20:24.028Z,13.20
2018-09-19T05:21:24.015Z,12.30
2018-09-19T05:22:24.012Z,12.40
2018-09-19T05:23:24.016Z,10.50
2018-09-19T05:24:24.007Z,8.10
2018-09-19T05:25:24.006Z,10.50
2018-09-19T05:26:24.004Z,13.00
2018-09-19T05:27:23.994Z,15.60
2018-09-19T05:28:23.995Z,14.90
2018-09-19T05:29:23.993Z,14.10
2018-09-19T05:30:23.992Z,14.20
2018-09-19T05:31:24.020Z,13.50
2018-09-19T05:32:23.989Z,13.20
2018-09-19T05:33:23.978Z,10.10
2018-09-19T05:34:23.972Z,14.30
2018-09-19T05:35:23.975Z,9.30
2018-09-19T05:36:23.970Z,11.30
2018-09-19T05:37:23.969Z,12.70
2018-09-19T05:38:23.965Z,11.80
2018-09-19T05:39:23.961Z,10.20
2018-09-19T05:40:23.958Z,10.90
2018-09-19T05:41:23.951Z,15.40
2018-09-19T05:42:23.947Z,11.80
2018-09-19T05:43:23.950Z,11.50
2018-09-19T05:44:23.947Z,12.80
2018-09-19T05:45:23.941Z,13.90
2018-09-19T05:46:23.982Z,12.50
2018-09-19T05:47:23.934Z,14.00
2018-09-19T05:48:23.936Z,11.70
2018-09-19T05:49:23.932Z,9.40
2018-09-19T05:50:23.930Z,16.10
2018-09-19T05:51:23.940Z,15.00
2018-09-19T05:52:23.925Z,9.90
2018-09-19T05:53:23.916Z,12.90
2018-09-19T05:54:23.954Z,11.70
2018-09-19T05:55:23.938Z,15.00
2018-09-19T05:56:23.910Z,10.10
2018-09-19T05:57:23.910Z,14.00
2018-09-19T05:58:23.911Z,13.90
2018-09-19T05:59:23.902Z,10.60
2018-09-19T06:00:23.899Z,11.90
2018-09-19T06:01:23.904Z,13.60
2018-09-19T06:02:23.905Z,12.50
2018-09-19T06:03:23.901Z,11.10
2018-09-19T06:04:23.896Z,11.30
2018-09-19T06:05:23.897Z,15.80
2018-09-19T06:06:23.886Z,10.60
2018-09-19T06:07:23.923Z,11.90
2018-09-19T06:08:23.882Z,14.50
2018-09-19T06:09:23.883Z,11.80
2018-09-19T06:10:23.884Z,9.10
2018-09-19T06:11:23.881Z,12.70
2018-09-19T06:12:23.879Z,10.40
2018-09-19T06:13:23.873Z,14.10
2018-09-19T06:14:23.870Z,14.00
2018-09-19T06:15:23.875Z,12.20
2018-09-19T06:16:23.874Z,11.10
2018-09-19T06:17:23.866Z,10.70
2018-09-19T06:18:23.867Z,11.60
2018-09-19T06:19:23.865Z,11.60
2018-09-19T06:20:23.864Z,13.20
2018-09-19T06:21:23.868Z,11.40
2018-09-19T06:22:23.869Z,11.90
2018-09-19T06:23:23.867Z,11.50
2018-09-19T06:24:23.870Z,12.10
2018-09-19T06:25:23.866Z,11.70
2018-09-19T06:26:23.864Z,11.40
2018-09-19T06:27:23.866Z,11.60
2018-09-19T06:28:23.870Z,11.40
2018-09-19T06:29:23.872Z,11.90
2018-09-19T06:30:23.872Z,12.20
2018-09-19T06:31:23.872Z,11.60
2018-09-19T06:32:23.870Z,10.20
2018-09-19T06:33:23.940Z,10.20
2018-09-19T06:34:23.878Z,11.90
2018-09-19T06:35:23.879Z,8.20
2018-09-19T06:36:23.881Z,11.50
2018-09-19T06:37:23.878Z,9.90
2018-09-19T06:38:23.896Z,12.40
2018-09-19T06:39:23.882Z,10.40
2018-09-19T06:40:23.913Z,9.70
2018-09-19T06:41:23.891Z,11.90
2018-09-19T06:42:23.894Z,10.90
2018-09-19T06:43:23.900Z,12.10
2018-09-19T06:44:23.900Z,10.50
2018-09-19T06:45:23.899Z,11.80
2018-09-19T06:46:23.901Z,8.30
2018-09-19T06:47:23.912Z,9.80
2018-09-19T06:48:23.915Z,9.90
2018-09-19T06:49:23.915Z,11.40
2018-09-19T06:50:23.916Z,11.80
2018-09-19T06:51:23.920Z,11.70
2018-09-19T06:52:23.986Z,8.80
2018-09-19T06:53:23.932Z,9.60
2018-09-19T06:54:23.936Z,11.20
2018-09-19T06:55:23.940Z,9.20
2018-09-19T06:56:23.944Z,10.40
2018-09-19T06:57:23.944Z,12.20
2018-09-19T06:58:23.950Z,9.70
2018-09-19T06:59:23.953Z,11.40
2018-09-19T07:00:23.964Z,8.70
2018-09-19T07:01:23.969Z,12.20
2018-09-19T07:02:23.971Z,12.50
2018-09-19T07:03:23.972Z,9.00
2018-09-19T07:04:23.977Z,12.20
2018-09-19T07:05:23.986Z,10.70
2018-09-19T07:06:23.991Z,8.70
2018-09-19T07:07:23.996Z,11.40
2018-09-19T07:08:24.003Z,8.90
2018-09-19T07:09:24.002Z,10.50
2018-09-19T07:10:24.058Z,7.80
2018-09-19T07:11:24.027Z,10.50
2018-09-19T07:12:24.022Z,11.80
2018-09-19T07:13:24.030Z,8.60
2018-09-19T07:14:24.049Z,7.90
2018-09-19T07:15:24.043Z,8.80
2018-09-19T07:16:24.048Z,9.40
2018-09-19T07:17:24.049Z,7.80
2018-09-19T07:18:24.061Z,8.30
2018-09-19T07:19:24.073Z,10.20
2018-09-19T07:20:24.072Z,10.20
2018-09-19T07:21:24.075Z,8.60
2018-09-19T07:22:24.084Z,10.50
2018-09-19T07:23:24.089Z,9.10
2018-09-19T07:24:24.096Z,8.60
2018-09-19T07:25:24.108Z,11.00
2018-09-19T07:26:24.114Z,7.10
2018-09-19T07:27:24.121Z,10.50
2018-09-19T07:28:24.128Z,9.80
2018-09-19T07:29:24.131Z,10.80
2018-09-19T07:30:24.138Z,11.50
2018-09-19T07:31:24.144Z,10.20
2018-09-19T07:32:24.152Z,12.00
2018-09-19T07:33:24.164Z,8.90
2018-09-19T07:34:24.232Z,8.80
2018-09-19T07:35:24.173Z,10.70
2018-09-19T07:36:24.180Z,12.50
2018-09-19T07:37:24.197Z,11.90
2018-09-19T07:38:24.249Z,9.10
2018-09-19T07:39:24.207Z,13.20
2018-09-19T07:40:24.295Z,9.50
2018-09-19T07:41:24.218Z,9.60
2018-09-19T07:42:24.225Z,11.30
2018-09-19T07:43:24.233Z,7.80
2018-09-19T07:44:24.281Z,9.80
2018-09-19T07:45:24.256Z,7.60
2018-09-19T07:46:24.266Z,9.90
2018-09-19T07:47:24.273Z,12.20
2018-09-19T07:48:24.282Z,8.20
2018-09-19T07:49:24.284Z,11.20
2018-09-19T07:50:24.294Z,8.00
2018-09-19T07:51:24.305Z,9.60
2018-09-19T07:52:24.313Z,10.10
2018-09-19T07:53:24.317Z,11.00
2018-09-19T07:54:24.336Z,13.60
2018-09-19T07:55:24.424Z,9.20
2018-09-19T07:56:24.345Z,8.80
2018-09-19T07:57:24.358Z,9.60
2018-09-19T07:58:24.366Z,10.90
2018-09-19T07:59:24.381Z,7.80
2018-09-19T08:00:24.392Z,9.40
2018-09-19T08:01:24.389Z,9.90
2018-09-19T08:02:24.399Z,8.10
2018-09-19T08:03:24.405Z,7.20
2018-09-19T08:04:24.414Z,10.30
2018-09-19T08:05:24.426Z,10.10
2018-09-19T08:06:24.437Z,10.20
2018-09-19T08:07:24.441Z,8.70
2018-09-19T08:08:24.452Z,10.60
2018-09-19T08:09:24.464Z,9.80
2018-09-19T08:10:24.471Z,9.50
2018-09-19T08:11:24.482Z,10.10
2018-09-19T08:12:24.492Z,10.50
2018-09-19T08:13:24.498Z,6.10
2018-09-19T08:14:24.504Z,9.00
2018-09-19T08:15:24.514Z,8.30
2018-09-19T08:16:24.525Z,8.40
2018-09-19T08:17:24.538Z,9.80
2018-09-19T08:18:24.548Z,10.10
2018-09-19T08:19:24.561Z,8.90
2018-09-19T08:20:24.573Z,6.70
2018-09-19T08:21:24.579Z,8.10
2018-09-19T08:22:24.609Z,9.80
2018-09-19T08:23:24.599Z,8.50
2018-09-19T08:24:24.609Z,9.20
2018-09-19T08:25:24.621Z,14.30
2018-09-19T08:26:24.631Z,8.70
2018-09-19T08:27:24.645Z,10.40
2018-09-19T08:28:24.648Z,10.70
2018-09-19T08:29:24.660Z,9.30
2018-09-19T08:30:24.672Z,12.10
2018-09-19T08:31:24.682Z,11.80
2018-09-19T08:32:24.693Z,11.40
2018-09-19T08:33:24.696Z,9.80
2018-09-19T08:34:24.705Z,9.90
2018-09-19T08:35:24.723Z,9.70
2018-09-19T08:36:24.723Z,12.50
2018-09-19T08:37:24.736Z,8.80
2018-09-19T08:38:24.744Z,10.20
2018-09-19T08:39:24.748Z,9.50
2018-09-19T08:40:24.756Z,9.70
2018-09-19T08:41:24.769Z,9.00
2018-09-19T08:42:24.776Z,10.30
2018-09-19T08:43:24.784Z,10.60
2018-09-19T08:44:24.793Z,9.30
2018-09-19T08:45:24.795Z,9.80
2018-09-19T08:46:24.805Z,9.30
2018-09-19T08:47:24.813Z,9.20
2018-09-19T08:48:24.826Z,10.80
2018-09-19T08:49:24.838Z,11.00
2018-09-19T08:50:24.867Z,8.70
2018-09-19T08:51:24.856Z,8.20
2018-09-19T08:52:24.869Z,9.00
2018-09-19T08:53:24.872Z,9.40
2018-09-19T08:54:24.882Z,6.80
2018-09-19T08:55:24.896Z,9.70
2018-09-19T08:56:24.910Z,10.50
2018-09-19T08:57:24.912Z,11.90
2018-09-19T08:58:24.928Z,9.40
2018-09-19T08:59:24.933Z,9.20
2018-09-19T09:00:24.946Z,6.60
2018-09-19T09:01:24.966Z,12.10
2018-09-19T09:02:24.973Z,9.80
2018-09-19T09:03:24.983Z,12.00
2018-09-19T09:04:24.993Z,10.10
2018-09-19T09:05:25.210Z,8.10
2018-09-19T09:06:25.012Z,11.30
2018-09-19T09:07:25.028Z,11.10
2018-09-19T09:08:25.040Z,11.50
2018-09-19T09:09:25.054Z,8.40
2018-09-19T09:10:25.066Z,11.00
2018-09-19T09:11:25.072Z,8.90
2018-09-19T09:12:25.119Z,8.60
2018-09-19T09:13:25.100Z,7.90
2018-09-19T09:14:25.112Z,11.80
2018-09-19T09:15:25.124Z,8.60
2018-09-19T09:16:25.136Z,11.50
2018-09-19T09:17:25.143Z,8.00
2018-09-19T09:18:25.157Z,5.40
2018-09-19T09:19:25.168Z,10.80
2018-09-19T09:20:25.186Z,8.70
2018-09-19T09:21:25.199Z,7.80
2018-09-19T09:22:25.211Z,8.20
2018-09-19T09:23:25.225Z,7.80
2018-09-19T09:24:25.237Z,7.60
2018-09-19T09:25:25.249Z,9.90
2018-09-19T09:26:25.259Z,8.60
2018-09-19T09:27:25.327Z,9.20
2018-09-19T09:28:25.289Z,8.00
2018-09-19T09:29:25.297Z,10.00
2018-09-19T09:30:25.311Z,6.60
2018-09-19T09:31:25.322Z,10.10
2018-09-19T09:32:25.338Z,7.70
2018-09-19T09:33:25.357Z,7.10
2018-09-19T09:34:25.416Z,8.60
2018-09-19T09:35:25.383Z,8.50
2018-09-19T09:36:25.395Z,7.70
2018-09-19T09:37:25.403Z,6.40
2018-09-19T09:38:25.427Z,7.80
2018-09-19T09:39:25.430Z,8.70
2018-09-19T09:40:25.474Z,8.90
2018-09-19T09:41:25.460Z,7.20
2018-09-19T09:42:25.475Z,8.10
2018-09-19T09:43:25.566Z,6.80
2018-09-19T09:44:25.498Z,7.50
2018-09-19T09:45:25.518Z,9.10
2018-09-19T09:46:25.530Z,6.20
2018-09-19T09:47:25.543Z,7.30
2018-09-19T09:48:25.557Z,7.50
2018-09-19T09:49:25.568Z,8.50
2018-09-19T09:50:25.639Z,7.60
2018-09-19T09:51:25.630Z,6.40
2018-09-19T09:52:25.613Z,9.50
2018-09-19T09:53:25.676Z,7.40
2018-09-19T09:54:25.643Z,8.90
2018-09-19T09:55:25.658Z,7.40
2018-09-19T09:56:25.670Z,8.40
2018-09-19T09:57:25.679Z,7.60
2018-09-19T09:58:25.692Z,5.80
2018-09-19T09:59:25.714Z,9.30
2018-09-19T10:00:25.727Z,7.80
2018-09-19T10:01:25.738Z,8.80
2018-09-19T10:02:25.750Z,7.90
2018-09-19T10:03:25.763Z,10.90
2018-09-19T10:04:25.777Z,8.30
2018-09-19T10:05:25.794Z,8.40
2018-09-19T10:06:25.864Z,10.10
2018-09-19T10:07:25.825Z,6.70
2018-09-19T10:08:25.833Z,6.10
2018-09-19T10:09:25.842Z,8.50
2018-09-19T10:10:25.859Z,8.90
2018-09-19T10:11:25.869Z,9.10
2018-09-19T10:12:25.881Z,7.50
2018-09-19T10:13:25.899Z,9.00
2018-09-19T10:14:25.910Z,8.20
2018-09-19T10:15:25.917Z,7.50
2018-09-19T10:16:25.930Z,7.80
2018-09-19T10:17:25.945Z,8.20
2018-09-19T10:18:25.965Z,9.20
2018-09-19T10:19:25.970Z,10.20
2018-09-19T10:20:25.980Z,8.10
2018-09-19T10:21:25.987Z,8.80
2018-09-19T10:22:25.999Z,9.40
2018-09-19T10:23:26.012Z,9.40
2018-09-19T10:24:26.018Z,6.30
2018-09-19T10:25:26.035Z,6.80
2018-09-19T10:26:26.046Z,7.30
2018-09-19T10:27:26.056Z,10.30
2018-09-19T10:28:26.066Z,7.40
2018-09-19T10:29:26.103Z,7.60
2018-09-19T10:30:26.080Z,6.70
2018-09-19T10:31:26.094Z,9.10
2018-09-19T10:32:26.106Z,8.50
2018-09-19T10:33:26.110Z,7.10
2018-09-19T10:34:26.119Z,8.10
2018-09-19T10:35:26.195Z,6.20
2018-09-19T10:36:26.145Z,5.30
2018-09-19T10:37:26.153Z,4.90
2018-09-19T10:38:26.163Z,6.40
2018-09-19T10:39:26.173Z,6.20
2018-09-19T10:40:26.183Z,5.90
2018-09-19T10:41:26.185Z,5.70
2018-09-19T10:42:26.196Z,6.00
2018-09-19T10:43:26.213Z,7.40
2018-09-19T10:44:26.216Z,5.80
2018-09-19T10:45:26.231Z,8.50
2018-09-19T10:46:26.240Z,5.20
2018-09-19T10:47:26.247Z,6.90
2018-09-19T10:48:26.263Z,7.10
2018-09-19T10:49:26.278Z,5.80
2018-09-19T10:50:26.283Z,5.20
2018-09-19T10:51:26.297Z,5.60
2018-09-19T10:52:26.307Z,8.50
2018-09-19T10:53:26.313Z,4.20
2018-09-19T10:54:26.325Z,6.40
2018-09-19T10:55:26.336Z,6.60
2018-09-19T10:56:26.351Z,7.10
2018-09-19T10:57:26.364Z,5.30
2018-09-19T10:58:26.375Z,11.20
2018-09-19T10:59:26.387Z,3.70
2018-09-19T11:00:26.402Z,6.00
2018-09-19T11:01:26.405Z,6.60
2018-09-19T11:02:26.419Z,5.80
2018-09-19T11:03:26.436Z,7.20
2018-09-19T11:04:26.455Z,6.70
2018-09-19T11:05:26.457Z,6.00
2018-09-19T11:06:26.468Z,7.90
2018-09-19T11:07:26.481Z,4.90
2018-09-19T11:08:26.495Z,7.00
2018-09-19T11:09:26.510Z,8.70
2018-09-19T11:10:26.528Z,7.50
2018-09-19T11:11:26.536Z,5.10
2018-09-19T11:12:26.547Z,7.50
2018-09-19T11:13:26.555Z,5.60
2018-09-19T11:14:26.567Z,6.30
2018-09-19T11:15:26.579Z,5.40
2018-09-19T11:16:26.591Z,7.80
2018-09-19T11:17:26.607Z,6.90
2018-09-19T11:18:26.619Z,7.30
2018-09-19T11:19:26.627Z,7.50
2018-09-19T11:20:26.638Z,5.70
2018-09-19T11:21:26.654Z,5.90
2018-09-19T11:22:26.665Z,6.30
2018-09-19T11:23:26.687Z,5.10
2018-09-19T11:24:26.689Z,5.50
2018-09-19T11:25:26.695Z,5.90
2018-09-19T11:26:26.757Z,5.40
2018-09-19T11:27:26.717Z,3.50
2018-09-19T11:28:26.733Z,6.00
2018-09-19T11:29:26.741Z,5.10
2018-09-19T11:30:26.753Z,5.20
2018-09-19T11:31:26.766Z,4.20
2018-09-19T11:32:26.772Z,6.00
2018-09-19T11:33:26.782Z,3.50
2018-09-19T11:34:26.785Z,4.40
2018-09-19T11:35:26.801Z,6.90
2018-09-19T11:36:26.813Z,6.60
2018-09-19T11:37:26.813Z,4.50
2018-09-19T11:38:26.822Z,3.70
2018-09-19T11:39:26.830Z,4.50
2018-09-19T11:40:26.838Z,5.90
2018-09-19T11:41:26.852Z,6.40
2018-09-19T11:42:26.859Z,6.60
2018-09-19T11:43:26.870Z,5.10
2018-09-19T11:44:26.878Z,4.00
2018-09-19T11:45:26.880Z,6.60
2018-09-19T11:46:26.887Z,5.50
2018-09-19T11:47:26.895Z,5.40
2018-09-19T11:48:26.904Z,5.70
2018-09-19T11:49:26.915Z,4.50
2018-09-19T11:50:26.923Z,5.00
2018-09-19T11:51:26.926Z,4.90
2018-09-19T11:52:26.933Z,5.80
2018-09-19T11:53:26.983Z,4.70
2018-09-19T11:54:26.953Z,5.00
2018-09-19T11:55:26.958Z,5.00
2018-09-19T11:56:26.965Z,4.00
2018-09-19T11:57:26.967Z,7.40
2018-09-19T11:58:26.977Z,3.40
2018-09-19T11:59:26.982Z,6.70
2018-09-19T12:00:26.992Z,7.30
2018-09-19T12:01:27.000Z,6.40
2018-09-19T12:02:27.008Z,4.10
2018-09-19T12:03:27.015Z,3.70
2018-09-19T12:04:27.021Z,5.30
2018-09-19T12:05:27.023Z,7.40
2018-09-19T12:06:27.030Z,6.40
2018-09-19T12:07:27.089Z,4.70
2018-09-19T12:08:27.048Z,6.50
2018-09-19T12:09:27.049Z,5.60
2018-09-19T12:10:27.055Z,5.90
2018-09-19T12:11:27.061Z,4.40
2018-09-19T12:12:27.068Z,5.20
2018-09-19T12:13:27.078Z,5.40
2018-09-19T12:14:27.084Z,5.10
2018-09-19T12:15:27.091Z,3.90
2018-09-19T12:16:27.098Z,6.80
2018-09-19T12:17:27.099Z,6.20
2018-09-19T12:18:27.104Z,5.00
2018-09-19T12:19:27.161Z,4.40
2018-09-19T12:20:27.119Z,6.00
2018-09-19T12:21:27.128Z,6.90
2018-09-19T12:22:27.134Z,5.30
2018-09-19T12:23:27.136Z,5.30
2018-09-19T12:24:27.143Z,6.40
2018-09-19T12:25:27.152Z,6.90
2018-09-19T12:26:27.182Z,5.10
2018-09-19T12:27:27.163Z,5.70
2018-09-19T12:28:27.175Z,6.50
2018-09-19T12:29:27.171Z,3.10
2018-09-19T12:30:27.177Z,4.80
2018-09-19T12:31:27.182Z,6.70
2018-09-19T12:32:27.188Z,7.90
2018-09-19T12:33:27.198Z,4.60
2018-09-19T12:34:27.204Z,9.70
2018-09-19T12:35:27.209Z,8.00
2018-09-19T12:36:27.217Z,6.80
2018-09-19T12:37:27.218Z,4.60
2018-09-19T12:38:27.222Z,4.70
2018-09-19T12:39:27.244Z,5.70
2018-09-19T12:40:27.237Z,5.60
2018-09-19T12:41:27.238Z,5.30
2018-09-19T12:42:27.244Z,6.30
2018-09-19T12:43:27.249Z,5.80
2018-09-19T12:44:27.255Z,4.80
2018-09-19T12:45:27.265Z,6.80
2018-09-19T12:46:27.269Z,5.80
2018-09-19T12:47:27.276Z,4.40
2018-09-19T12:48:27.282Z,4.20
2018-09-19T12:49:27.287Z,4.10
2018-09-19T12:50:27.286Z,4.20
2018-09-19T12:51:27.292Z,6.20
2018-09-19T12:52:27.296Z,5.50
2018-09-19T12:53:27.306Z,5.30
2018-09-19T12:54:27.311Z,4.60
2018-09-19T12:55:27.313Z,6.80
2018-09-19T12:56:27.319Z,9.20
2018-09-19T12:57:27.328Z,4.80
2018-09-19T12:58:27.332Z,6.80
2018-09-19T12:59:27.339Z,5.40
2018-09-19T13:00:27.343Z,5.70
2018-09-19T13:01:27.342Z,6.70
2018-09-19T13:02:27.349Z,4.70
2018-09-19T13:03:27.353Z,8.80
2018-09-19T13:04:27.360Z,5.80
2018-09-19T13:05:27.366Z,5.30
2018-09-19T13:06:27.417Z,9.80
2018-09-19T13:07:27.378Z,6.30
2018-09-19T13:08:27.383Z,6.00
2018-09-19T13:09:27.383Z,4.90
2018-09-19T13:10:27.389Z,7.10